createdAt,value
2022-11-07T00:01:16.436Z,53.20
2022-11-07T00:03:48.098Z,56.20
2022-11-07T00:06:20.239Z,56.90
2022-11-07T00:08:54.152Z,47.40
2022-11-07T00:11:26.490Z,42.80
2022-11-07T00:13:58.375Z,49.10
2022-11-07T00:16:30.717Z,48.50
2022-11-07T00:19:02.498Z,47.40
2022-11-07T00:21:34.672Z,62.50
2022-11-07T00:24:11.750Z,49.60
2022-11-07T00:26:44.366Z,51.90
2022-11-07T00:29:19.601Z,50.90
2022-11-07T00:31:52.234Z,48.20
2022-11-07T00:34:27.464Z,52.10
2022-11-07T00:36:59.769Z,50.90
2022-11-07T00:39:32.208Z,46.70
2022-11-07T00:42:05.113Z,48.20
2022-11-07T00:44:37.698Z,52.60
2022-11-07T00:47:09.846Z,58.80
2022-11-07T00:49:41.688Z,46.20
2022-11-07T00:52:13.666Z,44.10
2022-11-07T00:54:45.611Z,45.60
2022-11-07T00:57:17.593Z,52.60
2022-11-07T00:59:49.439Z,51.40
2022-11-07T01:02:21.788Z,46.70
2022-11-07T01:05:12.036Z,51.20
2022-11-07T01:07:43.924Z,46.60
2022-11-07T01:10:15.625Z,49.40
2022-11-07T01:12:47.411Z,46.30
2022-11-07T01:15:19.817Z,48.40
2022-11-07T01:17:51.941Z,55.00
2022-11-07T01:20:24.167Z,47.80
2022-11-07T01:22:56.509Z,64.00
2022-11-07T01:25:28.327Z,63.90
2022-11-07T01:28:00.185Z,55.40
2022-11-07T01:30:32.688Z,42.10
2022-11-07T01:33:04.663Z,53.10
2022-11-07T01:35:37.865Z,66.90
2022-11-07T01:38:12.281Z,63.50
2022-11-07T01:41:04.220Z,56.20
2022-11-07T01:43:49.581Z,60.60
2022-11-07T01:46:22.436Z,60.50
2022-11-07T01:48:57.612Z,60.00
2022-11-07T01:51:32.442Z,62.10
2022-11-07T01:54:05.562Z,59.70
2022-11-07T01:56:41.353Z,57.20
2022-11-07T01:59:17.159Z,61.20
2022-11-07T02:01:54.575Z,61.40
2022-11-07T02:07:03.059Z,57.40
2022-11-07T02:09:35.525Z,60.20
2022-11-07T02:12:08.477Z,58.00
2022-11-07T02:14:42.756Z,56.50
2022-11-07T02:17:15.727Z,58.00
2022-11-07T02:19:51.034Z,62.80
2022-11-07T02:22:30.787Z,68.80
2022-11-07T02:25:05.135Z,56.30
2022-11-07T02:27:39.369Z,57.80
2022-11-07T02:30:14.665Z,70.00
2022-11-07T02:32:47.416Z,54.80
2022-11-07T02:38:12.255Z,56.90
2022-11-07T02:40:47.249Z,55.00
2022-11-07T02:43:22.298Z,57.90
2022-11-07T02:45:54.888Z,52.70
2022-11-07T02:48:31.411Z,49.70
2022-11-07T02:51:03.519Z,56.30
2022-11-07T02:53:35.444Z,56.50
2022-11-07T02:56:08.262Z,52.90
2022-11-07T03:01:12.450Z,52.30
2022-11-07T03:03:47.393Z,55.60
2022-11-07T03:06:21.554Z,54.70
2022-11-07T03:08:54.033Z,58.80
2022-11-07T03:11:25.708Z,55.60
2022-11-07T03:13:57.866Z,41.30
2022-11-07T03:16:29.561Z,67.40
2022-11-07T03:19:01.261Z,51.30
2022-11-07T03:21:32.910Z,62.50
2022-11-07T03:24:05.170Z,55.20
2022-11-07T03:26:37.468Z,56.20
2022-11-07T03:29:09.291Z,48.30
2022-11-07T03:31:40.993Z,53.50
2022-11-07T03:34:13.247Z,55.70
2022-11-07T03:36:45.055Z,42.00
2022-11-07T03:39:18.556Z,60.80
2022-11-07T03:41:54.282Z,54.60
2022-11-07T03:44:26.196Z,56.80
2022-11-07T03:46:58.178Z,61.70
2022-11-07T03:49:30.816Z,60.80
2022-11-07T03:52:02.807Z,58.20
2022-11-07T03:54:34.492Z,54.70
2022-11-07T03:57:06.341Z,57.60
2022-11-07T03:59:39.795Z,61.00
2022-11-07T04:02:11.920Z,52.40
2022-11-07T04:04:44.068Z,56.30
2022-11-07T04:07:15.748Z,57.70
2022-11-07T04:09:47.548Z,51.90
2022-11-07T04:12:37.814Z,64.30
2022-11-07T04:15:30.776Z,53.10
2022-11-07T04:18:02.560Z,59.80
2022-11-07T04:20:34.309Z,56.90
2022-11-07T04:23:06.135Z,59.50
2022-11-07T04:25:55.506Z,56.90
2022-11-07T04:28:27.831Z,48.30
2022-11-07T04:30:59.968Z,58.40
2022-11-07T04:33:32.103Z,60.90
2022-11-07T04:36:04.622Z,53.70
2022-11-07T04:38:36.457Z,57.10
2022-11-07T04:41:18.829Z,61.60
2022-11-07T04:43:50.891Z,61.00
2022-11-07T04:46:24.139Z,57.10
2022-11-07T04:48:55.903Z,52.40
2022-11-07T04:51:27.806Z,50.00
2022-11-07T04:54:01.438Z,59.70
2022-11-07T04:56:34.697Z,66.20
2022-11-07T04:59:07.834Z,57.90
2022-11-07T05:01:40.312Z,56.10
2022-11-07T05:04:12.402Z,50.20
2022-11-07T05:06:44.609Z,55.50
2022-11-07T05:09:19.267Z,54.00
2022-11-07T05:11:51.289Z,52.00
2022-11-07T05:14:23.439Z,56.40
2022-11-07T05:16:57.030Z,34.40
2022-11-07T05:19:28.686Z,53.40
2022-11-07T05:22:14.328Z,55.30
2022-11-07T05:24:46.005Z,55.00
2022-11-07T05:27:22.182Z,60.30
2022-11-07T05:29:54.989Z,62.20
2022-11-07T05:32:26.877Z,54.60
2022-11-07T05:34:58.656Z,51.30
2022-11-07T05:37:30.850Z,48.70
2022-11-07T05:40:03.161Z,56.50
2022-11-07T05:42:34.985Z,55.40
2022-11-07T05:45:08.513Z,56.40
2022-11-07T05:47:40.176Z,54.20
2022-11-07T05:50:12.441Z,48.30
2022-11-07T05:52:44.385Z,50.80
2022-11-07T05:55:16.701Z,65.20
2022-11-07T05:57:48.713Z,50.10
2022-11-07T06:00:21.946Z,57.70
2022-11-07T06:03:03.654Z,57.30
2022-11-07T06:05:38.827Z,47.90
2022-11-07T06:08:14.799Z,60.90
2022-11-07T06:10:46.545Z,62.00
2022-11-07T06:13:18.915Z,55.80
2022-11-07T06:15:50.937Z,53.60
2022-11-07T06:18:23.839Z,52.50
2022-11-07T06:20:55.890Z,50.60
2022-11-07T06:23:27.693Z,53.60
2022-11-07T06:25:59.661Z,37.50
2022-11-07T06:28:31.472Z,52.30
2022-11-07T06:31:05.255Z,53.20
2022-11-07T06:33:37.002Z,49.20
2022-11-07T06:36:12.585Z,51.90
2022-11-07T06:38:44.415Z,53.50
2022-11-07T06:41:17.077Z,54.20
2022-11-07T06:43:51.221Z,50.50
2022-11-07T06:46:23.540Z,53.40
2022-11-07T06:48:55.329Z,46.90
2022-11-07T06:51:27.159Z,47.10
2022-11-07T06:53:59.116Z,46.50
2022-11-07T06:56:31.274Z,45.20
2022-11-07T06:59:03.130Z,42.20
2022-11-07T07:01:35.098Z,50.10
2022-11-07T07:04:06.950Z,47.70
2022-11-07T07:06:39.269Z,39.90
2022-11-07T07:09:10.947Z,42.20
2022-11-07T07:11:45.088Z,47.90
2022-11-07T07:14:16.755Z,38.30
2022-11-07T07:16:48.706Z,43.80
2022-11-07T07:19:20.861Z,39.00
2022-11-07T07:21:52.469Z,26.00
2022-11-07T07:24:24.222Z,34.80
2022-11-07T07:26:56.228Z,33.60
2022-11-07T07:29:28.321Z,32.50
2022-11-07T07:31:59.968Z,41.50
2022-11-07T07:34:31.999Z,29.60
2022-11-07T07:37:04.124Z,37.80
2022-11-07T07:39:35.904Z,30.00
2022-11-07T07:42:07.845Z,33.30
2022-11-07T07:44:40.298Z,31.80
2022-11-07T07:47:12.036Z,20.80
2022-11-07T07:49:43.769Z,29.40
2022-11-07T07:52:15.778Z,38.60
2022-11-07T07:54:48.863Z,24.70
2022-11-07T07:57:20.667Z,27.70
2022-11-07T07:59:52.458Z,27.00
2022-11-07T08:02:24.383Z,24.90
2022-11-07T08:04:56.128Z,24.50
2022-11-07T08:07:27.770Z,26.40
2022-11-07T08:10:09.859Z,22.70
2022-11-07T08:12:54.385Z,25.80
2022-11-07T08:15:26.381Z,26.90
2022-11-07T08:18:01.221Z,13.80
2022-11-07T08:20:33.368Z,24.60
2022-11-07T08:23:12.998Z,28.30
2022-11-07T08:25:52.976Z,24.00
2022-11-07T08:28:27.323Z,26.40
2022-11-07T08:31:00.749Z,24.90
2022-11-07T08:33:34.180Z,19.20
2022-11-07T08:36:08.044Z,26.40
2022-11-07T08:38:39.758Z,19.90
2022-11-07T08:41:11.632Z,22.50
2022-11-07T08:43:43.375Z,19.50
2022-11-07T08:46:15.088Z,23.10
2022-11-07T08:48:46.807Z,30.70
2022-11-07T08:51:18.457Z,22.40
2022-11-07T08:53:50.284Z,25.20
2022-11-07T08:56:22.037Z,20.30
2022-11-07T08:58:53.822Z,22.00
2022-11-07T09:01:25.666Z,19.80
2022-11-07T09:03:58.449Z,23.60
2022-11-07T09:06:32.964Z,25.70
2022-11-07T09:09:04.972Z,20.60
2022-11-07T09:11:36.757Z,23.60
2022-11-07T09:14:08.797Z,16.40
2022-11-07T09:16:40.545Z,16.40
2022-11-07T09:19:12.314Z,18.40
2022-11-07T09:21:45.541Z,18.60
2022-11-07T09:24:17.280Z,21.80
2022-11-07T09:26:49.099Z,20.10
2022-11-07T09:29:21.031Z,21.20
2022-11-07T09:31:53.690Z,21.40
2022-11-07T09:34:26.027Z,22.90
2022-11-07T09:36:57.978Z,19.50
2022-11-07T09:39:29.637Z,22.00
2022-11-07T09:42:07.889Z,20.20
2022-11-07T09:44:57.792Z,22.60
2022-11-07T09:47:36.997Z,17.80
2022-11-07T09:50:15.033Z,21.60
2022-11-07T09:52:55.061Z,19.30
2022-11-07T09:55:32.361Z,19.60
2022-11-07T09:58:07.231Z,22.50
2022-11-07T10:00:39.579Z,19.00
2022-11-07T10:03:13.241Z,19.90
2022-11-07T10:05:56.232Z,17.40
2022-11-07T10:08:36.457Z,17.40
2022-11-07T10:11:15.232Z,21.40
2022-11-07T10:13:57.881Z,17.60
2022-11-07T10:16:40.500Z,21.80
2022-11-07T10:19:24.793Z,16.30
2022-11-07T10:22:06.102Z,16.00
2022-11-07T10:24:50.042Z,19.10
2022-11-07T10:27:23.815Z,17.30
2022-11-07T10:29:56.645Z,17.20
2022-11-07T10:32:36.526Z,18.00
2022-11-07T10:35:26.297Z,17.50
2022-11-07T10:38:00.422Z,16.00
2022-11-07T10:40:38.489Z,18.00
2022-11-07T10:43:26.969Z,16.30
2022-11-07T10:46:00.358Z,15.60
2022-11-07T10:48:33.172Z,17.50
2022-11-07T10:53:46.076Z,13.80
2022-11-07T10:56:21.501Z,14.50
2022-11-07T10:58:53.926Z,13.70
2022-11-07T11:04:00.968Z,12.30
2022-11-07T11:06:33.580Z,15.00
2022-11-07T11:09:16.195Z,14.80
2022-11-07T11:11:51.479Z,18.60
2022-11-07T11:14:23.729Z,15.20
2022-11-07T11:16:57.605Z,17.40
2022-11-07T11:19:34.926Z,16.20
2022-11-07T11:22:17.383Z,20.50
2022-11-07T11:24:58.824Z,18.50
2022-11-07T11:27:35.323Z,15.90
2022-11-07T11:30:12.907Z,18.40
2022-11-07T11:32:51.626Z,12.70
2022-11-07T11:35:41.700Z,16.90
2022-11-07T11:38:21.171Z,15.50
2022-11-07T11:41:04.769Z,22.20
2022-11-07T11:43:47.664Z,13.90
2022-11-07T11:46:27.219Z,13.50
2022-11-07T11:49:02.394Z,16.70
2022-11-07T11:51:41.721Z,19.10
2022-11-07T11:54:16.367Z,15.70
2022-11-07T11:56:54.651Z,13.80
2022-11-07T11:59:46.251Z,13.50
2022-11-07T12:03:02.995Z,16.60
2022-11-07T12:06:18.297Z,13.90
2022-11-07T12:09:01.740Z,13.70
2022-11-07T12:11:44.257Z,16.00
2022-11-07T12:14:35.273Z,13.10
2022-11-07T12:17:15.735Z,14.40
2022-11-07T12:20:00.442Z,13.20
2022-11-07T12:22:46.066Z,15.50
2022-11-07T12:25:26.840Z,12.60
2022-11-07T12:28:11.256Z,15.20
2022-11-07T12:30:54.060Z,12.10
2022-11-07T12:33:34.909Z,14.10
2022-11-07T12:36:14.433Z,15.60
2022-11-07T12:39:08.832Z,13.90
2022-11-07T12:41:51.527Z,21.10
2022-11-07T12:44:34.766Z,14.90
2022-11-07T12:47:16.593Z,13.20
2022-11-07T12:50:01.177Z,15.80
2022-11-07T12:52:44.541Z,11.90
2022-11-07T12:55:25.826Z,12.30
2022-11-07T12:57:59.839Z,17.20
2022-11-07T13:00:32.143Z,11.20
2022-11-07T13:03:19.480Z,11.10
2022-11-07T13:06:03.947Z,14.90
2022-11-07T13:08:42.607Z,11.60
2022-11-07T13:11:23.851Z,16.50
2022-11-07T13:14:21.073Z,11.80
2022-11-07T13:17:13.014Z,16.60
2022-11-07T13:19:46.228Z,17.60
2022-11-07T13:22:32.901Z,13.90
2022-11-07T13:25:27.100Z,16.90
2022-11-07T13:28:28.418Z,15.30
2022-11-07T13:31:06.735Z,15.20
2022-11-07T13:33:39.818Z,15.90
2022-11-07T13:36:28.160Z,14.70
2022-11-07T13:39:04.011Z,19.40
2022-11-07T13:41:36.446Z,17.60
2022-11-07T13:44:16.758Z,13.60
2022-11-07T13:46:51.889Z,13.60
2022-11-07T13:49:33.332Z,12.50
2022-11-07T13:52:10.353Z,14.50
2022-11-07T13:54:48.805Z,13.30
2022-11-07T13:57:25.535Z,14.60
2022-11-07T14:00:00.997Z,12.80
2022-11-07T14:02:36.092Z,13.50
2022-11-07T14:05:16.380Z,11.60
2022-11-07T14:07:54.164Z,12.30
2022-11-07T14:10:31.693Z,12.60
2022-11-07T14:13:08.207Z,19.60
2022-11-07T14:15:47.992Z,15.60
2022-11-07T14:18:21.650Z,19.50
2022-11-07T14:20:55.609Z,12.30
2022-11-07T14:23:29.674Z,13.00
2022-11-07T14:26:05.869Z,15.70
2022-11-07T14:28:40.398Z,15.70
2022-11-07T14:31:19.299Z,13.70
2022-11-07T14:33:53.884Z,16.50
2022-11-07T14:36:26.105Z,15.20
2022-11-07T14:39:04.509Z,16.40
2022-11-07T14:41:41.648Z,14.90
2022-11-07T14:44:18.740Z,14.50
2022-11-07T14:46:52.954Z,12.70
2022-11-07T14:49:28.749Z,18.30
2022-11-07T14:52:01.309Z,19.40
2022-11-07T14:54:39.086Z,14.80
2022-11-07T14:57:14.303Z,18.30
2022-11-07T14:59:46.877Z,13.10
2022-11-07T15:02:28.901Z,17.00
2022-11-07T15:05:10.701Z,17.10
2022-11-07T15:07:51.001Z,19.80
2022-11-07T15:10:33.039Z,19.70
2022-11-07T15:13:07.280Z,17.30
2022-11-07T15:15:39.366Z,19.00
2022-11-07T15:18:29.293Z,14.40
2022-11-07T15:21:02.812Z,16.90
2022-11-07T15:23:36.140Z,17.40
2022-11-07T15:26:21.197Z,17.80
2022-11-07T15:28:54.809Z,15.10
2022-11-07T15:31:28.961Z,17.20
2022-11-07T15:34:03.888Z,22.10
2022-11-07T15:36:40.843Z,17.60
2022-11-07T15:39:16.053Z,17.20
2022-11-07T15:41:48.582Z,20.40
2022-11-07T15:44:20.336Z,20.60
2022-11-07T15:46:52.096Z,23.70
2022-11-07T15:49:24.385Z,22.70
2022-11-07T15:51:56.207Z,29.80
2022-11-07T15:54:28.863Z,29.00
